Time;durP1;ratioP1;P1;durP2;ratioP2;P2;SDS_P1;SDS_P2;PMS_P1;PMS_P2;Temp;Humidity;BMP_temperature;BMP_pressure;BME280_temperature;BME280_humidity;BME280_pressure;Samples;Min_cycle;Max_cycle;Signal;HPM_P1;HPM_P2
2022/05/13 00:00:24;;;;;;;4.05;0.68;;;;;;;11.80;100.00;98411.31;6251217;23;20096;-62
2022/05/13 00:03:08;;;;;;;1.45;0.40;;;;;;;11.76;100.00;98391.16;6197849;23;20489;-62
2022/05/13 00:05:52;;;;;;;1.65;0.60;;;;;;;11.76;100.00;98425.66;6240860;23;20039;-69
2022/05/13 00:08:37;;;;;;;1.63;0.50;;;;;;;11.72;100.00;98422.31;6240061;23;20119;-62
2022/05/13 00:11:21;;;;;;;2.08;0.40;;;;;;;11.91;100.00;98447.06;6247871;23;20543;-63
2022/05/13 00:14:09;;;;;;;1.52;0.50;;;;;;;11.95;100.00;98432.69;6216926;23;20097;-65
2022/05/13 00:16:53;;;;;;;4.45;0.88;;;;;;;11.90;100.00;98463.06;6247826;23;20508;-64
2022/05/13 00:19:39;;;;;;;1.50;0.52;;;;;;;11.94;100.00;98457.53;6226391;23;20422;-61
2022/05/13 00:22:23;;;;;;;0.80;0.50;;;;;;;11.91;100.00;98470.13;6249046;23;20339;-62
2022/05/13 00:25:08;;;;;;;1.17;0.55;;;;;;;11.88;100.00;98401.19;6247151;23;20027;-67
2022/05/13 00:28:01;;;;;;;1.30;0.50;;;;;;;11.86;100.00;98462.34;6241656;23;20051;-63
2022/05/13 00:30:50;;;;;;;1.10;0.50;;;;;;;11.78;100.00;98464.50;6218196;23;20442;-63
2022/05/13 00:33:34;;;;;;;0.77;0.60;;;;;;;11.74;100.00;98468.22;6197819;23;20358;-63
2022/05/13 00:36:19;;;;;;;4.32;0.60;;;;;;;11.69;100.00;98477.31;6241487;23;20038;-62
2022/05/13 00:39:04;;;;;;;1.17;0.70;;;;;;;11.54;100.00;98462.91;6248315;23;20151;-70
2022/05/13 00:41:49;;;;;;;1.08;0.50;;;;;;;11.57;100.00;98472.53;6252093;22;20023;-62
2022/05/13 00:44:34;;;;;;;1.52;0.68;;;;;;;11.66;100.00;98450.91;6239042;23;20027;-63
2022/05/13 00:47:19;;;;;;;1.75;0.70;;;;;;;11.58;100.00;98453.88;6219245;23;20121;-61
2022/05/13 00:50:04;;;;;;;0.98;0.63;;;;;;;11.74;100.00;98481.50;6241539;23;20069;-62
2022/05/13 00:52:51;;;;;;;1.63;0.70;;;;;;;11.78;100.00;98461.84;6218467;23;20030;-62
2022/05/13 00:55:42;;;;;;;0.80;0.60;;;;;;;11.79;100.00;98468.88;6251525;23;20035;-63
2022/05/13 00:58:29;;;;;;;2.03;0.70;;;;;;;11.86;100.00;98472.97;6249149;23;20035;-61
2022/05/13 01:01:14;;;;;;;0.80;0.65;;;;;;;11.72;100.00;98448.84;6241643;23;20378;-63
2022/05/13 01:04:06;;;;;;;2.17;0.90;;;;;;;11.88;100.00;98481.75;6229163;23;20451;-62
2022/05/13 01:06:54;;;;;;;3.47;0.70;;;;;;;11.92;100.00;98485.13;6216850;23;20078;-66
2022/05/13 01:09:46;;;;;;;2.97;0.80;;;;;;;11.95;100.00;98464.56;6218735;23;20319;-63
2022/05/13 01:12:36;;;;;;;2.53;1.08;;;;;;;11.99;100.00;98506.00;6251822;23;20031;-62
2022/05/13 01:15:26;;;;;;;3.00;0.90;;;;;;;12.01;100.00;98493.53;6217963;23;20030;-67
2022/05/13 01:18:11;;;;;;;2.20;0.93;;;;;;;11.99;100.00;98482.09;6251736;23;20035;-63
2022/05/13 01:20:56;;;;;;;1.85;0.95;;;;;;;12.04;100.00;98495.19;6238774;23;20528;-63
2022/05/13 01:23:43;;;;;;;1.42;0.68;;;;;;;12.04;100.00;98493.41;6218253;23;20055;-63
2022/05/13 01:26:30;;;;;;;1.75;0.70;;;;;;;12.08;100.00;98502.94;6251330;23;20031;-64
2022/05/13 01:29:15;;;;;;;2.30;0.70;;;;;;;11.98;100.00;98490.13;6240250;23;20027;-70
2022/05/13 01:31:59;;;;;;;1.73;0.93;;;;;;;12.03;100.00;98465.06;6218502;23;20073;-62
2022/05/13 01:34:43;;;;;;;1.70;0.73;;;;;;;12.09;100.00;98504.66;6239122;23;20417;-63
2022/05/13 01:37:28;;;;;;;3.20;0.70;;;;;;;12.08;100.00;98499.41;6251202;23;20031;-64
2022/05/13 01:40:13;;;;;;;2.28;0.80;;;;;;;12.08;100.00;98508.25;6226953;22;20094;-62
2022/05/13 01:42:57;;;;;;;2.33;1.10;;;;;;;12.10;100.00;98506.38;6251349;23;20027;-62
2022/05/13 01:45:42;;;;;;;2.17;0.90;;;;;;;12.09;100.00;98509.09;6218132;23;20030;-61
2022/05/13 01:48:27;;;;;;;4.07;1.15;;;;;;;12.06;100.00;98519.84;6218252;23;20419;-62
2022/05/13 01:51:12;;;;;;;1.83;0.80;;;;;;;11.97;100.00;98493.72;6218426;23;20031;-62
2022/05/13 01:53:57;;;;;;;3.03;0.70;;;;;;;12.15;100.00;98528.28;6215865;23;20027;-63
2022/05/13 01:56:41;;;;;;;3.40;0.80;;;;;;;12.13;100.00;98516.00;6250945;23;20078;-63
2022/05/13 01:59:25;;;;;;;11.83;1.13;;;;;;;12.06;100.00;98512.75;6246979;23;20027;-62
2022/05/13 02:02:10;;;;;;;5.18;0.90;;;;;;;11.89;100.00;98504.72;6250735;23;20317;-63
2022/05/13 02:04:54;;;;;;;2.15;0.65;;;;;;;11.90;100.00;98502.91;6240644;23;20490;-60
2022/05/13 02:07:39;;;;;;;2.35;0.68;;;;;;;11.90;100.00;98532.13;6240434;23;20030;-62
2022/05/13 02:10:24;;;;;;;2.50;1.08;;;;;;;11.84;100.00;98508.50;6250726;23;20030;-61
2022/05/13 02:13:10;;;;;;;3.72;0.70;;;;;;;12.01;100.00;98527.19;6215853;23;20031;-70
2022/05/13 02:15:55;;;;;;;1.23;0.88;;;;;;;11.88;100.00;98502.13;6240646;23;20143;-62
2022/05/13 02:18:40;;;;;;;2.42;0.60;;;;;;;11.92;100.00;98519.63;6236923;23;20046;-61
2022/05/13 02:21:25;;;;;;;;;;;;;;;12.08;100.00;98537.47;6197133;23;20023;-63
2022/05/13 02:24:10;;;;;;;2.92;0.73;;;;;;;12.00;100.00;98529.00;6239562;23;20083;-62
2022/05/13 02:26:55;;;;;;;3.58;0.77;;;;;;;12.01;100.00;98516.56;6250900;23;20031;-62
2022/05/13 02:29:39;;;;;;;1.88;0.80;;;;;;;12.02;100.00;98516.50;6250479;23;20557;-62
2022/05/13 02:32:24;;;;;;;5.55;0.70;;;;;;;12.02;100.00;98545.72;6237983;23;20031;-69
2022/05/13 02:35:09;;;;;;;1.67;0.68;;;;;;;12.12;100.00;98562.97;6250727;23;20054;-62
2022/05/13 02:37:54;;;;;;;1.52;0.52;;;;;;;12.06;100.00;98551.75;6215482;23;20113;-64
2022/05/13 02:43:53;;;;;;;2.70;0.70;;;;;;;12.09;100.00;98565.78;6250603;23;20073;-62
2022/05/13 02:46:38;;;;;;;1.38;0.60;;;;;;;12.09;100.00;98570.22;6250933;23;20119;-62
2022/05/13 02:49:22;;;;;;;2.10;0.90;;;;;;;12.13;100.00;98575.31;6240619;23;20112;-63
2022/05/13 02:52:11;;;;;;;1.33;0.50;;;;;;;12.12;100.00;98567.41;6250710;23;20111;-63
2022/05/13 02:54:55;;;;;;;1.88;0.50;;;;;;;11.99;100.00;98550.31;6237969;23;20369;-63
2022/05/13 02:57:40;;;;;;;1.63;0.60;;;;;;;12.03;100.00;98573.16;6240643;23;20026;-62
2022/05/13 03:00:24;;;;;;;2.10;0.80;;;;;;;12.01;100.00;98575.88;6249196;23;20035;-62
2022/05/13 03:03:09;;;;;;;2.92;0.90;;;;;;;11.93;100.00;98569.16;6238962;23;20027;-61
2022/05/13 03:05:54;;;;;;;3.30;0.68;;;;;;;12.00;100.00;98578.59;6228906;23;20031;-66
2022/05/13 03:08:38;;;;;;;4.07;0.80;;;;;;;11.90;100.00;98550.69;6218000;23;20027;-63
2022/05/13 03:11:23;;;;;;;2.25;0.68;;;;;;;11.96;100.00;98590.28;6251743;23;20297;-62
2022/05/13 03:14:07;;;;;;;2.60;0.70;;;;;;;11.85;100.00;98566.00;6239799;23;20597;-62
2022/05/13 03:16:52;;;;;;;3.47;0.80;;;;;;;12.01;100.00;98575.00;6219402;23;20027;-63
2022/05/13 03:19:37;;;;;;;2.80;0.73;;;;;;;12.10;100.00;98601.16;6250024;23;20404;-62
2022/05/13 03:22:22;;;;;;;1.45;0.80;;;;;;;12.19;100.00;98587.47;6252377;23;20078;-62
2022/05/13 03:25:07;;;;;;;4.10;1.08;;;;;;;12.09;100.00;98578.19;6198298;23;20070;-62
2022/05/13 03:27:51;;;;;;;1.95;0.60;;;;;;;12.22;100.00;98606.78;6242061;23;20031;-61
2022/05/13 03:30:36;;;;;;;1.90;0.60;;;;;;;12.12;100.00;98589.56;6229308;23;20069;-64
2022/05/13 03:33:23;;;;;;;2.65;0.65;;;;;;;12.12;100.00;98573.59;6240181;23;20409;-70
2022/05/13 03:36:12;;;;;;;3.05;0.60;;;;;;;12.24;100.00;98591.66;6231182;23;20097;-62
2022/05/13 03:38:56;;;;;;;3.30;0.65;;;;;;;12.19;100.00;98569.72;6242674;23;20085;-64
2022/05/13 03:41:40;;;;;;;2.35;0.60;;;;;;;12.43;100.00;98576.56;6244925;23;20027;-63
2022/05/13 03:44:25;;;;;;;3.47;0.60;;;;;;;12.35;100.00;98580.53;6251829;23;20027;-62
2022/05/13 03:47:09;;;;;;;0.70;0.50;;;;;;;12.33;100.00;98599.19;6241266;23;20027;-70
2022/05/13 03:49:54;;;;;;;4.88;0.43;;;;;;;12.22;100.00;98608.59;6252271;23;20098;-62
2022/05/13 03:52:38;;;;;;;6.30;0.88;;;;;;;12.28;100.00;98597.69;6249825;23;20031;-62
2022/05/13 03:55:23;;;;;;;4.35;1.98;;;;;;;12.34;100.00;98619.53;6209198;23;20307;-63
2022/05/13 03:58:07;;;;;;;2.15;0.80;;;;;;;12.27;100.00;98588.00;6228834;23;20171;-63
2022/05/13 04:00:52;;;;;;;2.55;0.65;;;;;;;12.23;100.00;98613.81;6242928;23;20027;-62
2022/05/13 04:03:36;;;;;;;3.30;0.70;;;;;;;12.14;100.00;98590.34;6241647;23;20507;-64
2022/05/13 04:09:23;;;;;;;6.57;0.93;;;;;;;12.24;100.00;98636.84;6228741;23;20439;-65
2022/05/13 04:18:14;;;;;;;4.18;1.08;;;;;;;12.56;100.00;98646.00;6239416;23;20096;-73
2022/05/13 04:20:59;;;;;;;3.25;0.73;;;;;;;12.55;100.00;98623.00;6241647;23;20516;-64
2022/05/13 04:23:46;;;;;;;2.38;0.47;;;;;;;12.53;100.00;98649.66;6226605;23;20027;-63
2022/05/13 04:26:30;;;;;;;3.78;0.77;;;;;;;12.57;100.00;98645.94;6229014;23;20081;-68
2022/05/13 04:29:15;;;;;;;;;;;;;;;12.66;100.00;98645.50;6250844;23;20027;-63
2022/05/13 04:31:59;;;;;;;4.38;0.77;;;;;;;12.58;100.00;98645.00;6251631;23;19968;-63
2022/05/13 04:34:43;;;;;;;1.40;0.63;;;;;;;12.55;100.00;98637.16;6218666;23;20054;-65
2022/05/13 04:37:28;;;;;;;5.45;1.55;;;;;;;12.52;100.00;98645.28;6216798;23;20031;-71
2022/05/13 04:40:13;;;;;;;3.20;0.60;;;;;;;12.24;100.00;98618.22;6251441;22;20027;-63
2022/05/13 04:42:58;;;;;;;2.97;0.70;;;;;;;12.41;100.00;98659.97;6238710;23;20459;-62
2022/05/13 04:45:42;;;;;;;2.85;0.60;;;;;;;12.43;100.00;98658.97;6218342;23;20031;-62
2022/05/13 04:48:27;;;;;;;;;;;;;;;12.62;100.00;98651.91;6251359;23;20234;-62
2022/05/13 04:51:12;;;;;;;1.73;0.70;;;;;;;12.64;100.00;98641.19;6197350;23;20010;-61
2022/05/13 04:53:58;;;;;;;2.42;0.70;;;;;;;12.72;100.00;98631.94;6217640;23;20034;-65
2022/05/13 04:56:42;;;;;;;3.38;0.70;;;;;;;12.80;100.00;98664.34;6239567;23;20103;-72
2022/05/13 04:59:27;;;;;;;4.00;1.13;;;;;;;12.99;100.00;98675.03;6218263;23;20039;-63
2022/05/13 05:02:11;;;;;;;3.42;0.70;;;;;;;12.88;100.00;98656.00;6225762;23;20030;-63
2022/05/13 05:04:55;;;;;;;5.93;0.63;;;;;;;12.75;100.00;98663.69;6251013;23;20462;-62
2022/05/13 05:07:42;;;;;;;2.90;0.80;;;;;;;12.66;100.00;98656.13;6226308;23;20026;-63
2022/05/13 05:10:27;;;;;;;2.88;0.90;;;;;;;12.71;100.00;98662.09;6250252;23;20027;-62
2022/05/13 05:13:22;;;;;;;6.93;1.00;;;;;;;12.95;100.00;98676.97;6227835;23;20076;-63
2022/05/13 05:16:08;;;;;;;2.97;0.50;;;;;;;13.01;100.00;98679.34;6225303;23;20363;-65
2022/05/13 05:18:52;;;;;;;3.90;0.90;;;;;;;13.07;100.00;98692.38;6195854;23;20026;-62
2022/05/13 05:21:36;;;;;;;3.08;0.80;;;;;;;12.90;100.00;98668.31;6217293;23;20027;-64
2022/05/13 05:24:20;;;;;;;1.58;0.60;;;;;;;12.99;100.00;98685.69;6217502;23;20027;-63
2022/05/13 05:27:09;;;;;;;2.13;0.70;;;;;;;13.01;100.00;98691.78;6240965;23;20027;-65
2022/05/13 05:29:54;;;;;;;3.20;0.70;;;;;;;13.00;100.00;98676.75;6203854;23;20522;-64
2022/05/13 05:32:40;;;;;;;5.38;0.75;;;;;;;12.91;100.00;98650.56;6250496;23;20130;-62
2022/05/13 05:35:25;;;;;;;2.78;0.70;;;;;;;12.85;100.00;98656.16;6215645;23;20042;-62
2022/05/13 05:38:10;;;;;;;2.35;0.70;;;;;;;13.02;100.00;98683.72;6239284;23;20516;-65
2022/05/13 05:40:55;;;;;;;1.58;0.50;;;;;;;13.18;100.00;98698.03;6218095;23;20066;-62
2022/05/13 05:43:42;;;;;;;1.85;0.60;;;;;;;13.28;100.00;98706.44;6217411;23;20069;-69
2022/05/13 05:46:26;;;;;;;1.30;0.55;;;;;;;13.25;100.00;98698.59;6217873;23;20047;-63
2022/05/13 05:49:10;;;;;;;2.03;0.60;;;;;;;13.17;100.00;98671.47;6194332;23;20104;-62
2022/05/13 05:51:56;;;;;;;3.15;0.63;;;;;;;13.30;100.00;98717.91;6250800;23;20030;-63
2022/05/13 05:58:03;;;;;;;5.20;0.70;;;;;;;13.47;100.00;98699.31;6247969;23;20389;-65
2022/05/13 06:00:49;;;;;;;2.83;0.60;;;;;;;13.51;100.00;98708.88;6227271;23;20485;-66
2022/05/13 06:03:34;;;;;;;4.10;0.80;;;;;;;13.55;100.00;98707.78;6240098;23;20099;-64
2022/05/13 06:06:19;;;;;;;1.85;0.50;;;;;;;13.69;100.00;98705.31;6248518;23;20031;-63
2022/05/13 06:09:03;;;;;;;2.45;0.70;;;;;;;13.74;100.00;98725.44;6217484;23;20027;-63
2022/05/13 06:11:48;;;;;;;2.70;0.70;;;;;;;13.59;100.00;98701.38;6249409;23;20054;-62
2022/05/13 06:14:33;;;;;;;0.77;0.45;;;;;;;13.74;100.00;98724.59;6217743;23;20031;-62
2022/05/13 06:17:17;;;;;;;3.83;0.70;;;;;;;13.79;100.00;98715.44;6250548;23;20073;-62
2022/05/13 06:20:05;;;;;;;5.00;0.68;;;;;;;14.07;100.00;98714.03;6217234;23;20410;-72
2022/05/13 06:22:49;;;;;;;3.05;0.68;;;;;;;13.97;100.00;98710.13;6240293;23;20070;-62
2022/05/13 06:25:34;;;;;;;;;;;;;;;13.83;100.00;98710.81;6248589;23;20460;-63
2022/05/13 06:28:19;;;;;;;3.53;0.90;;;;;;;13.85;100.00;98720.47;6250434;23;20045;-62
2022/05/13 06:31:03;;;;;;;3.70;0.60;;;;;;;14.05;100.00;98715.94;6250038;23;20628;-65
2022/05/13 06:33:48;;;;;;;2.63;0.77;;;;;;;14.03;100.00;98729.34;6196800;23;20426;-62
2022/05/13 06:36:33;;;;;;;4.15;0.50;;;;;;;13.89;100.00;98689.22;6250570;23;20031;-63
2022/05/13 06:39:19;;;;;;;4.80;0.50;;;;;;;14.00;100.00;98717.97;6206093;23;20027;-71
2022/05/13 06:42:04;;;;;;;0.90;0.50;;;;;;;13.98;100.00;98735.84;6239724;22;20081;-63
2022/05/13 06:44:56;;;;;;;2.83;0.65;;;;;;;14.12;100.00;98706.69;6236679;23;20081;-63
2022/05/13 06:47:40;;;;;;;1.50;0.80;;;;;;;14.34;100.00;98745.53;6216498;23;20468;-62
2022/05/13 06:50:25;;;;;;;1.73;0.70;;;;;;;14.23;100.00;98728.38;6226685;23;20034;-64
2022/05/13 06:53:11;;;;;;;3.45;0.60;;;;;;;14.26;100.00;98723.75;6249365;23;20369;-62
2022/05/13 06:55:55;;;;;;;3.20;1.02;;;;;;;14.35;100.00;98739.25;6249338;23;20078;-62
2022/05/13 06:58:40;;;;;;;2.15;0.60;;;;;;;14.43;100.00;98722.88;6246827;23;20030;-61
2022/05/13 07:01:25;;;;;;;2.17;0.75;;;;;;;14.45;100.00;98740.53;6248740;23;20039;-63
2022/05/13 07:04:09;;;;;;;3.30;0.55;;;;;;;14.58;100.00;98736.25;6247222;23;20473;-64
2022/05/13 07:06:53;;;;;;;3.97;0.55;;;;;;;14.62;100.00;98740.50;6194995;23;20038;-63
2022/05/13 07:09:39;;;;;;;2.10;0.60;;;;;;;14.51;100.00;98745.53;6237836;23;20610;-63
2022/05/13 07:12:23;;;;;;;3.20;0.60;;;;;;;14.20;100.00;98723.16;6247521;23;20373;-62
2022/05/13 07:15:11;;;;;;;2.92;0.90;;;;;;;14.22;100.00;98758.63;6249164;23;20027;-62
2022/05/13 07:17:55;;;;;;;3.33;0.90;;;;;;;14.18;100.00;98744.56;6223958;23;20055;-65
2022/05/13 07:20:40;;;;;;;1.90;0.77;;;;;;;14.22;100.00;98726.63;6248924;23;20027;-63
2022/05/13 07:23:24;;;;;;;3.83;0.90;;;;;;;14.58;100.00;98730.06;6247375;23;20066;-63
2022/05/13 07:26:10;;;;;;;3.25;0.80;;;;;;;14.77;100.00;98749.50;6248969;23;20031;-63
2022/05/13 07:28:54;;;;;;;4.95;0.80;;;;;;;14.82;100.00;98750.97;6248955;23;20097;-63
2022/05/13 07:31:39;;;;;;;4.75;0.63;;;;;;;15.29;100.00;98738.59;6249090;23;20031;-64
2022/05/13 07:34:24;;;;;;;1.85;0.73;;;;;;;15.21;100.00;98737.28;6249177;23;20493;-63
2022/05/13 07:37:09;;;;;;;3.60;0.68;;;;;;;15.19;100.00;98749.88;6223712;23;20516;-62
2022/05/13 07:42:57;;;;;;;2.92;0.80;;;;;;;16.02;100.00;98733.50;6239996;23;20077;-64
2022/05/13 07:45:41;;;;;;;2.22;0.70;;;;;;;16.97;100.00;98744.66;6247570;23;20035;-65
2022/05/13 07:48:25;;;;;;;5.97;0.73;;;;;;;17.17;100.00;98733.56;6250202;23;20031;-63
2022/05/13 07:51:11;;;;;;;5.22;1.13;;;;;;;16.81;100.00;98743.88;6214982;23;20100;-63
2022/05/13 07:53:56;;;;;;;2.40;0.50;;;;;;;16.17;100.00;98755.81;6248746;23;20167;-64
2022/05/13 07:56:40;;;;;;;1.58;0.60;;;;;;;16.04;100.00;98742.31;6251088;23;20027;-65
2022/05/13 07:59:26;;;;;;;2.40;0.70;;;;;;;16.18;100.00;98725.44;6252870;23;20477;-62
2022/05/13 08:02:10;;;;;;;3.53;0.82;;;;;;;15.97;100.00;98754.31;6253139;23;20078;-62
2022/05/13 08:04:55;;;;;;;4.47;0.85;;;;;;;16.74;100.00;98753.22;6249656;23;20027;-73
2022/05/13 08:07:39;;;;;;;4.82;0.60;;;;;;;17.47;100.00;98749.53;6251796;23;20366;-64
2022/05/13 08:10:24;;;;;;;4.25;0.50;;;;;;;17.00;100.00;98773.06;6249455;23;20027;-63
2022/05/13 08:13:08;;;;;;;;;;;;;;;16.86;100.00;98740.91;6198145;23;20354;-63
2022/05/13 08:15:52;;;;;;;3.10;0.70;;;;;;;17.23;100.00;98737.66;6251589;23;20316;-63
2022/05/13 08:18:37;;;;;;;2.70;0.77;;;;;;;17.81;100.00;98766.03;6177470;23;20027;-63
2022/05/13 08:21:22;;;;;;;3.33;0.80;;;;;;;17.04;100.00;98747.81;6241014;23;20031;-66
2022/05/13 08:24:06;;;;;;;1.58;0.30;;;;;;;16.66;100.00;98739.44;6249051;23;20069;-70
2022/05/13 08:26:51;;;;;;;1.17;0.40;;;;;;;16.49;100.00;98728.91;6241359;23;20063;-63
2022/05/13 08:29:35;;;;;;;2.40;0.60;;;;;;;17.51;100.00;98733.19;6249565;23;20468;-63
2022/05/13 08:32:20;;;;;;;1.65;0.60;;;;;;;19.67;95.69;98744.09;6251473;23;20094;-63
2022/05/13 08:35:05;;;;;;;2.63;0.60;;;;;;;20.17;86.03;98743.09;6251353;23;20523;-63
2022/05/13 08:37:53;;;;;;;1.88;0.60;;;;;;;21.69;82.73;98762.41;6197541;23;20094;-65
2022/05/13 08:40:47;;;;;;;1.17;0.45;;;;;;;20.29;84.72;98723.31;6241721;22;20363;-63
2022/05/13 08:43:45;;;;;;;1.73;0.60;;;;;;;21.38;79.92;98755.06;6249115;23;20027;-63
2022/05/13 08:46:40;;;;;;;1.08;0.40;;;;;;;21.60;76.37;98754.22;6224713;23;20073;-63
2022/05/13 08:49:47;;;;;;;4.20;0.73;;;;;;;21.34;80.78;98750.91;6239281;23;20067;-63
2022/05/13 08:53:07;;;;;;;0.80;0.47;;;;;;;20.63;81.43;98752.06;6226580;23;20082;-64
2022/05/13 08:56:01;;;;;;;3.58;0.60;;;;;;;19.74;87.42;98761.50;6126870;23;20498;-64
2022/05/13 08:58:58;;;;;;;2.42;0.40;;;;;;;19.59;86.95;98751.00;6128466;23;20101;-64
2022/05/13 09:02:09;;;;;;;8.45;0.50;;;;;;;18.67;89.76;98741.44;6105067;23;20029;-64
2022/05/13 09:05:01;;;;;;;2.60;0.60;;;;;;;18.88;89.81;98742.66;6104329;23;20033;-64
2022/05/13 09:07:47;;;;;;;0.90;0.40;;;;;;;19.68;82.90;98755.69;6127427;23;20179;-64
2022/05/13 09:10:35;;;;;;;2.90;0.50;;;;;;;18.95;79.84;98737.72;6128377;23;20380;-64
2022/05/13 09:13:29;;;;;;;2.45;0.50;;;;;;;18.76;83.42;98738.13;6095898;23;20427;-69
2022/05/13 09:16:21;;;;;;;1.50;0.50;;;;;;;18.41;86.88;98745.06;6076514;23;20029;-65
2022/05/13 09:19:11;;;;;;;3.65;0.50;;;;;;;17.93;90.64;98733.03;6116645;23;20085;-65
2022/05/13 09:21:55;;;;;;;1.13;0.40;;;;;;;19.77;81.59;98749.63;6124066;23;20336;-64
2022/05/13 09:24:40;;;;;;;2.70;0.50;;;;;;;19.12;80.37;98742.75;6105605;23;20097;-63
2022/05/13 09:27:25;;;;;;;2.42;0.35;;;;;;;18.97;80.77;98735.75;6113631;23;20084;-63
2022/05/13 09:30:11;;;;;;;1.55;0.20;;;;;;;18.47;78.88;98727.66;6125777;23;20029;-64
2022/05/13 09:32:55;;;;;;;0.93;0.40;;;;;;;17.94;86.41;98739.28;6201286;23;20485;-64
2022/05/13 09:35:42;;;;;;;2.33;0.60;;;;;;;17.75;91.58;98726.22;6216090;23;20031;-64
2022/05/13 09:38:31;;;;;;;1.02;0.40;;;;;;;18.02;88.69;98753.03;6216083;23;20066;-65
2022/05/13 09:41:35;;;;;;;1.00;0.40;;;;;;;18.29;85.33;98732.44;6245093;22;20082;-63
2022/05/13 09:44:25;;;;;;;2.83;0.43;;;;;;;18.33;83.56;98749.16;6235482;23;20034;-69
2022/05/13 09:47:13;;;;;;;0.32;0.30;;;;;;;17.96;82.14;98738.22;6215004;23;20026;-66
2022/05/13 09:50:01;;;;;;;1.70;0.47;;;;;;;18.74;78.46;98732.00;6224233;23;20273;-64
2022/05/13 09:52:45;;;;;;;1.75;0.50;;;;;;;18.46;78.77;98736.66;6237191;23;20073;-64
2022/05/13 09:55:41;;;;;;;2.10;0.30;;;;;;;18.34;78.14;98753.56;6193530;23;20146;-63
2022/05/13 09:58:32;;;;;;;2.88;0.32;;;;;;;18.08;78.90;98748.13;6235752;23;20031;-70
2022/05/13 10:01:28;;;;;;;1.23;0.30;;;;;;;17.80;82.72;98725.91;6204612;23;20491;-63
2022/05/13 10:04:20;;;;;;;2.40;0.40;;;;;;;18.63;77.98;98734.56;6250712;23;20409;-63
2022/05/13 10:07:08;;;;;;;1.60;0.38;;;;;;;18.39;81.58;98757.69;6227745;23;20234;-64
2022/05/13 10:16:21;;;;;;;1.70;0.35;;;;;;;17.75;81.39;98747.69;6125980;23;20428;-64
2022/05/13 10:19:18;;;;;;;1.15;0.40;;;;;;;18.58;84.86;98768.03;6133585;23;20177;-63
2022/05/13 10:22:12;;;;;;;2.58;0.40;;;;;;;18.39;84.36;98781.03;6145588;23;20686;-64
2022/05/13 10:25:03;;;;;;;2.58;0.63;;;;;;;18.67;79.51;98724.47;6154816;23;20028;-64
2022/05/13 10:27:55;;;;;;;2.03;0.50;;;;;;;18.69;80.29;98752.94;6135829;23;20033;-62
2022/05/13 10:30:47;;;;;;;1.33;0.68;;;;;;;19.14;78.00;98740.81;6157170;23;20065;-64
2022/05/13 10:33:47;;;;;;;4.63;0.63;;;;;;;20.33;69.19;98766.03;6123902;23;20036;-63
2022/05/13 10:36:47;;;;;;;1.17;0.50;;;;;;;19.34;72.44;98735.75;6147131;23;20072;-63
2022/05/13 10:39:51;;;;;;;5.55;0.85;;;;;;;19.10;77.32;98758.13;6156836;23;20068;-64
2022/05/13 10:42:41;;;;;;;1.40;0.50;;;;;;;18.50;79.33;98752.47;6125865;23;20465;-63
2022/05/13 10:45:30;;;;;;;2.25;0.50;;;;;;;18.20;77.04;98732.19;6083454;23;20036;-62
2022/05/13 10:48:23;;;;;;;1.65;0.40;;;;;;;17.80;81.30;98731.25;6156787;23;20069;-63
2022/05/13 10:51:34;;;;;;;3.60;0.50;;;;;;;18.81;90.65;98730.59;6125967;23;20028;-64
2022/05/13 10:54:19;;;;;;;1.48;0.40;;;;;;;19.61;88.95;98765.19;6217084;23;20468;-61
2022/05/13 10:57:22;;;;;;;3.47;0.50;;;;;;;20.62;81.40;98780.00;6247072;23;20030;-68
2022/05/13 11:00:11;;;;;;;1.35;0.50;;;;;;;20.90;76.80;98753.53;6249716;23;20127;-63
2022/05/13 11:03:12;;;;;;;1.63;0.43;;;;;;;20.95;73.63;98731.59;6216679;23;20150;-62
2022/05/13 11:06:06;;;;;;;19.60;0.60;;;;;;;21.04;68.47;98717.41;6226751;23;20031;-64
2022/05/13 11:08:59;;;;;;;2.40;0.43;;;;;;;20.51;70.74;98736.84;6214707;23;20023;-64
2022/05/13 11:11:45;;;;;;;1.27;0.60;;;;;;;20.92;72.68;98739.91;6216890;23;20031;-62
2022/05/13 11:14:35;;;;;;;1.48;0.45;;;;;;;21.12;67.79;98729.31;6217213;23;20031;-63
2022/05/13 11:17:26;;;;;;;1.92;0.80;;;;;;;21.55;66.53;98741.09;6248032;23;20138;-72
2022/05/13 11:20:35;;;;;;;1.80;0.40;;;;;;;21.35;65.69;98738.25;6248492;23;20362;-62
2022/05/13 11:23:37;;;;;;;3.45;0.43;;;;;;;21.47;66.15;98743.53;6216681;23;20031;-63
2022/05/13 11:26:31;;;;;;;2.67;0.57;;;;;;;21.44;64.56;98751.03;6226750;23;20059;-62
2022/05/13 11:29:24;;;;;;;2.60;0.40;;;;;;;21.07;65.85;98742.28;6224495;23;20031;-63
2022/05/13 11:32:21;;;;;;;2.40;0.45;;;;;;;21.02;66.40;98730.16;6227576;23;20508;-64
2022/05/13 11:35:39;;;;;;;2.70;0.50;;;;;;;21.11;62.80;98738.38;6218629;23;20078;-65
2022/05/13 11:38:51;;;;;;;2.25;0.43;;;;;;;20.61;65.06;98735.19;6250268;23;20113;-64
2022/05/13 11:41:56;;;;;;;1.67;0.40;;;;;;;20.07;63.98;98745.56;6241200;22;20150;-65
2022/05/13 11:44:49;;;;;;;;;;;;;;;20.58;65.22;98757.84;6251789;23;20042;-64
2022/05/13 11:47:58;;;;;;;4.97;0.50;;;;;;;20.92;59.87;98742.63;6217721;23;19969;-65
2022/05/13 11:50:43;;;;;;;0.90;0.40;;;;;;;20.88;61.69;98706.06;6216641;23;20486;-63
2022/05/13 11:53:54;;;;;;;1.73;0.52;;;;;;;21.15;61.16;98731.78;6251800;23;20047;-64
2022/05/13 11:56:40;;;;;;;2.28;0.50;;;;;;;20.56;69.84;98738.22;6207910;23;20035;-64
2022/05/13 11:59:24;;;;;;;6.68;0.50;;;;;;;20.77;74.43;98728.47;6239975;23;20085;-64
2022/05/13 12:02:35;;;;;;;3.95;0.45;;;;;;;20.47;72.94;98740.75;6251254;23;20521;-64
2022/05/13 12:05:19;;;;;;;2.95;0.50;;;;;;;20.21;74.51;98756.19;6251501;23;20031;-62
2022/05/13 12:08:31;;;;;;;3.78;0.60;;;;;;;20.45;71.59;98737.34;6218406;23;20082;-64
2022/05/13 12:11:46;;;;;;;1.27;0.40;;;;;;;20.48;70.93;98743.34;6249805;23;20115;-65
2022/05/13 12:14:58;;;;;;;3.17;0.50;;;;;;;20.44;70.54;98722.13;6228445;23;20405;-65
2022/05/13 12:17:51;;;;;;;0.95;0.30;;;;;;;20.50;70.43;98740.53;6241241;23;20050;-63
2022/05/13 12:20:36;;;;;;;1.25;0.30;;;;;;;20.53;66.87;98748.38;6216056;23;20070;-64
2022/05/13 12:23:29;;;;;;;1.88;0.40;;;;;;;20.50;66.78;98732.44;6218422;23;20027;-65
2022/05/13 12:26:14;;;;;;;2.55;0.40;;;;;;;20.63;65.96;98731.41;6251097;23;20085;-65
2022/05/13 12:29:10;;;;;;;1.52;0.50;;;;;;;20.63;66.51;98741.28;6203482;23;20058;-69
2022/05/13 12:31:54;;;;;;;3.13;0.50;;;;;;;20.25;67.58;98724.53;6224176;23;20054;-65
2022/05/13 12:38:03;;;;;;;2.47;0.40;;;;;;;19.47;71.77;98755.44;6249055;23;20082;-63
2022/05/13 12:40:55;;;;;;;1.25;0.40;;;;;;;19.17;74.57;98735.22;6247328;22;20034;-66
2022/05/13 12:44:08;;;;;;;10.30;0.70;;;;;;;18.76;80.73;98745.31;6249046;23;20070;-64
2022/05/13 12:47:13;;;;;;;2.55;0.40;;;;;;;19.53;77.06;98751.44;6228364;23;20074;-65
2022/05/13 12:50:12;;;;;;;2.40;0.73;;;;;;;20.07;74.89;98750.09;6251083;23;20039;-65
2022/05/13 12:52:58;;;;;;;3.83;0.60;;;;;;;20.19;71.67;98746.50;6239177;23;20515;-69
2022/05/13 12:55:42;;;;;;;3.00;0.73;;;;;;;20.00;69.00;98748.81;6236660;23;20362;-69
2022/05/13 12:58:31;;;;;;;2.83;0.60;;;;;;;19.79;64.54;98753.09;6238927;23;20031;-68
2022/05/13 13:01:18;;;;;;;2.28;0.50;;;;;;;19.52;68.53;98755.97;6236927;23;20023;-65
2022/05/13 13:04:08;;;;;;;1.27;0.50;;;;;;;19.40;71.84;98743.41;6248756;23;20074;-69
2022/05/13 13:06:53;;;;;;;3.25;0.40;;;;;;;18.91;83.74;98749.63;6249271;23;20370;-71
2022/05/13 13:09:44;;;;;;;5.22;0.70;;;;;;;18.58;94.31;98776.09;6236092;23;20027;-74
2022/05/13 13:12:32;;;;;;;2.17;0.40;;;;;;;18.46;94.20;98761.69;6215654;23;20054;-66
2022/05/13 13:15:26;;;;;;;3.28;0.73;;;;;;;18.15;94.96;98735.16;6249186;23;20087;-66
2022/05/13 13:18:12;;;;;;;1.92;0.50;;;;;;;17.99;94.19;98764.84;6246519;23;20119;-72
2022/05/13 13:21:07;;;;;;;0.68;0.50;;;;;;;17.65;99.88;98767.97;6238416;23;20027;-67
2022/05/13 13:23:52;;;;;;;3.72;0.60;;;;;;;17.55;100.00;98766.00;6248815;23;20027;-68
2022/05/13 13:26:36;;;;;;;;;;;;;;;17.67;100.00;98786.66;6249066;23;20077;-66
2022/05/13 13:29:28;;;;;;;1.65;0.45;;;;;;;17.84;100.00;98781.94;6216294;23;19918;-70
2022/05/13 13:32:17;;;;;;;5.40;0.65;;;;;;;18.40;100.00;98756.75;6224501;23;20520;-64
2022/05/13 13:35:03;;;;;;;5.32;0.52;;;;;;;18.58;100.00;98741.19;6250539;23;20070;-65